Богородское

Карта отелей и гостиниц, располагающихся рядом с аэропортом Богородское :



Богородское Хабаровский край 52° 22' 54.7788" N, 140° 26' 58.9812" E

Богородское Хабаровский край 52° 22' 54.7788" N, 140° 26' 58.9812" E
Код аэродрома ИКАО: 
UHNB
Код аэродрома RU: 
УХНБ
Координаты: 
N52.38188° E140.44972°
Превышение над уровнем моря : 
49
Основная полоса: 
03/21
Курс магнитный: 
026,7/206,7
Длина основной ВПП: 
1400
Ширина основной ВПП: 
30
Покрытие основной ВПП: 
Твёрдое (бетон)
Тип: 
Аэродром
Освещение ВПП: 
По запросу
Класс аэродрома: 
Статус: 
Действующий
Принадлежность: 
ГА
Сайт: 
www.apdv.net
E-mail аэродрома: 
Страна: 
Россия
Регион: 
Хабаровский край
Город: 
Дополнительная информация: 
Аэропорт МВЛС. Филиал ФКП ''Аэропорты Дальнего Востока''

Найти трансфер

С помощью этой формы Вы можете найти трансфер из аэропорта Богородское в город, аэропорт или вокзал:

Карта места

Javascript is required to view this map.

Погода в аэропортах:

Авиационная погода в Нальчике

Регион: 
Погода METAR: 
URMN 210400Z 03001MPS 0300 -DZ FG VV001 01/01 Q1015 R24/////// NOSIG RMK QBB040 MT OBSC OBST OBSC QFE725
Время наблюдения: 
2020-02-21T04:00:00Z
Температура C: 
1.0
Точка росы: 
1.0
Направление ветра: 
30
Скорость ветра: 
2
Метеорологическая видимость: 
0.19
Явления погоды: 
-DZ FG
Условия полета: 
LIFR
Аэропорт подробнее: 

Авиационная погода в Витебске

Регион: 
Погода METAR: 
UMII 210400Z 20001MPS 4900 BR OVC031 M00/M01 Q1017 TEMPO 2100 SCT005
Время наблюдения: 
2020-02-21T04:00:00Z
Температура C: 
0.0
Точка росы: 
-1.0
Направление ветра: 
200
Скорость ветра: 
2
Метеорологическая видимость: 
3.04
Явления погоды: 
BR
Условия полета: 
MVFR

Авиационная погода в Липецке

Регион: 
Погода METAR: 
UUOL 210400Z 21002MPS 5000 BR BKN047 M00/M01 Q1023 R15/090060 NOSIG
Время наблюдения: 
2020-02-21T04:00:00Z
Температура C: 
0.0
Точка росы: 
-1.0
Направление ветра: 
210
Скорость ветра: 
4
Метеорологическая видимость: 
3.11
Явления погоды: 
BR
Условия полета: 
MVFR
Аэропорт подробнее: 

Авиационная погода в Анапе

Регион: 
Погода METAR: 
URKA 210400Z 07002MPS 4700 BR BKN003 02/02 Q1016 R04/010065 TEMPO 1000 BR BKN002 BKN020CB RMK QBB090 OBST OBSC QFE758/1011
Время наблюдения: 
2020-02-21T04:00:00Z
Температура C: 
2.0
Точка росы: 
2.0
Направление ветра: 
70
Скорость ветра: 
4
Метеорологическая видимость: 
2.92
Явления погоды: 
BR
Условия полета: 
LIFR
Аэропорт подробнее: